Time;durP1;ratioP1;P1;durP2;ratioP2;P2;SDS_P1;SDS_P2;PMS_P1;PMS_P2;Temp;Humidity;BMP_temperature;BMP_pressure;BME280_temperature;BME280_humidity;BME280_pressure;Samples;Min_cycle;Max_cycle;Signal;HPM_P1;HPM_P2
2021/07/06 00:02:16;;;;;;;12.50;10.35;;;;;;;19.58;77.97;100572.19;5088566;28;20032;-75
2021/07/06 00:04:41;;;;;;;11.23;8.80;;;;;;;19.59;78.32;100575.75;5092152;28;20063;-76
2021/07/06 00:07:06;;;;;;;11.98;9.70;;;;;;;19.60;78.42;100574.63;5091062;28;20093;-75
2021/07/06 00:09:32;;;;;;;13.88;10.27;;;;;;;19.60;78.95;100585.69;5093786;28;20028;-75
2021/07/06 00:11:57;;;;;;;14.45;8.07;;;;;;;19.54;79.09;100587.06;5094946;28;20024;-75
2021/07/06 00:14:23;;;;;;;35.42;10.38;;;;;;;19.33;79.33;100590.63;5097078;28;20024;-75
2021/07/06 00:16:50;;;;;;;29.85;7.63;;;;;;;18.93;79.79;100591.06;5095843;28;20043;-75
2021/07/06 00:19:15;;;;;;;18.92;7.47;;;;;;;18.77;80.51;100590.03;5095872;28;20031;-74
2021/07/06 00:21:41;;;;;;;16.05;7.40;;;;;;;18.73;80.47;100591.84;5077711;28;20392;-74
2021/07/06 00:24:06;;;;;;;15.38;8.07;;;;;;;18.71;81.02;100588.59;5096699;28;20016;-74
2021/07/06 00:26:32;;;;;;;13.40;7.40;;;;;;;18.72;81.08;100593.00;5094667;28;20028;-74
2021/07/06 00:28:57;;;;;;;13.60;7.30;;;;;;;18.70;81.02;100589.75;5096778;28;20043;-75
2021/07/06 00:31:22;;;;;;;20.13;8.25;;;;;;;18.64;81.59;100589.94;5093835;28;20377;-75
2021/07/06 00:33:49;;;;;;;16.08;7.03;;;;;;;18.60;81.37;100596.44;5094535;28;20466;-75
2021/07/06 00:36:15;;;;;;;35.08;9.48;;;;;;;18.48;81.48;100601.88;5091193;28;20035;-75
2021/07/06 00:38:40;;;;;;;26.48;8.30;;;;;;;18.30;82.11;100601.13;5096653;28;20415;-75
2021/07/06 00:41:06;;;;;;;9.20;5.60;;;;;;;18.22;82.73;100588.16;5096049;28;20070;-74
2021/07/06 00:43:33;;;;;;;7.57;4.18;;;;;;;18.21;82.69;100581.03;5095199;28;20465;-74
2021/07/06 00:45:59;;;;;;;8.65;4.05;;;;;;;18.19;83.01;100584.91;5094573;28;20016;-74
2021/07/06 00:48:27;;;;;;;10.57;6.18;;;;;;;18.23;83.17;100587.06;5096480;28;20027;-74
2021/07/06 00:50:53;;;;;;;8.32;6.13;;;;;;;18.27;83.34;100599.03;5094866;28;20678;-74
2021/07/06 00:53:18;;;;;;;9.52;6.22;;;;;;;18.29;83.19;100588.47;5095121;28;20020;-75
2021/07/06 00:55:44;;;;;;;8.13;6.68;;;;;;;18.34;83.38;100591.06;5093316;28;20546;-74
2021/07/06 00:58:11;;;;;;;9.32;6.65;;;;;;;18.36;83.49;100595.09;5076878;28;20032;-74
2021/07/06 01:00:37;;;;;;;9.90;6.50;;;;;;;18.38;83.47;100592.81;5092884;28;20032;-74
2021/07/06 01:03:04;;;;;;;9.15;6.07;;;;;;;18.39;83.34;100591.69;5093015;28;20024;-74
2021/07/06 01:05:30;;;;;;;6.60;5.80;;;;;;;18.40;83.53;100584.22;5087279;28;20362;-74
2021/07/06 01:07:55;;;;;;;7.85;6.55;;;;;;;18.42;83.37;100581.94;5094771;28;20027;-74
2021/07/06 01:10:21;;;;;;;6.22;5.63;;;;;;;18.42;83.70;100592.97;5094794;28;20047;-74
2021/07/06 01:12:47;;;;;;;6.80;5.70;;;;;;;18.43;83.64;100600.09;5094530;28;20073;-74
2021/07/06 01:15:25;;;;;;;6.97;6.05;;;;;;;18.44;83.62;100581.59;5095082;28;20035;-74
2021/07/06 01:18:06;;;;;;;8.23;5.60;;;;;;;18.44;83.73;100601.72;5062248;28;20028;-75
2021/07/06 01:20:33;;;;;;;6.90;6.13;;;;;;;18.43;83.40;100583.53;5095473;28;20361;-74
2021/07/06 01:22:59;;;;;;;7.90;6.22;;;;;;;18.41;83.16;100583.88;5092498;28;20031;-74
2021/07/06 01:25:24;;;;;;;8.35;5.90;;;;;;;18.39;83.46;100593.63;5093185;28;20016;-75
2021/07/06 01:27:49;;;;;;;7.50;6.22;;;;;;;18.37;83.65;100585.69;5093546;28;20032;-74
2021/07/06 01:30:16;;;;;;;10.07;6.25;;;;;;;18.37;83.63;100587.63;5095433;28;20081;-74
2021/07/06 01:32:42;;;;;;;10.15;7.05;;;;;;;18.36;83.81;100588.75;5094444;28;20354;-74
2021/07/06 01:35:09;;;;;;;11.52;7.00;;;;;;;18.34;83.93;100588.31;5094920;28;20024;-75
2021/07/06 01:37:34;;;;;;;7.13;5.38;;;;;;;18.32;83.63;100587.81;5092950;28;20099;-74
2021/07/06 01:39:59;;;;;;;6.40;5.70;;;;;;;18.30;83.78;100579.06;5092561;28;20491;-74
2021/07/06 01:42:26;;;;;;;5.70;5.18;;;;;;;18.25;83.78;100579.22;5075846;28;20024;-74
2021/07/06 01:45:14;;;;;;;6.85;4.57;;;;;;;18.21;83.90;100575.53;5095641;28;20153;-74
2021/07/06 01:47:50;;;;;;;7.53;5.50;;;;;;;18.18;83.79;100577.78;5093175;28;20035;-74
2021/07/06 01:50:20;;;;;;;9.27;6.10;;;;;;;18.16;83.81;100579.25;5088423;28;20157;-74
2021/07/06 01:52:47;;;;;;;8.43;6.20;;;;;;;18.16;83.74;100585.59;5087823;28;20065;-75
2021/07/06 01:55:13;;;;;;;9.25;6.30;;;;;;;18.17;84.00;100586.41;5085735;28;20035;-74
2021/07/06 01:57:40;;;;;;;6.20;5.57;;;;;;;18.15;83.96;100588.69;5090312;28;20027;-75
2021/07/06 02:00:07;;;;;;;8.45;6.68;;;;;;;18.17;83.94;100587.22;5072823;28;20021;-75
2021/07/06 02:02:33;;;;;;;5.63;5.10;;;;;;;18.17;83.85;100590.00;5089963;28;20032;-75
2021/07/06 02:05:04;;;;;;;7.15;6.45;;;;;;;18.14;83.96;100587.88;5093707;28;20039;-75
2021/07/06 02:07:29;;;;;;;7.68;6.43;;;;;;;18.15;83.90;100583.97;5075973;28;20032;-75
2021/07/06 02:09:54;;;;;;;9.38;6.13;;;;;;;18.16;83.97;100587.53;5092351;28;20028;-75
2021/07/06 02:12:20;;;;;;;6.70;5.22;;;;;;;18.12;84.05;100573.59;5086425;28;20031;-75
2021/07/06 02:14:45;;;;;;;8.95;5.30;;;;;;;18.12;83.99;100583.84;5094787;28;20443;-74
2021/07/06 02:17:12;;;;;;;6.32;5.10;;;;;;;18.11;83.97;100588.53;5092697;28;20039;-75
2021/07/06 02:19:37;;;;;;;6.68;5.20;;;;;;;18.11;83.67;100583.00;5094507;28;20047;-74
2021/07/06 02:22:04;;;;;;;7.78;5.30;;;;;;;18.12;83.76;100579.13;5080976;28;20035;-74
2021/07/06 02:24:29;;;;;;;6.30;4.53;;;;;;;18.15;83.67;100583.97;5092332;28;20034;-74
2021/07/06 02:26:55;;;;;;;6.00;5.50;;;;;;;18.19;83.90;100582.16;5091762;28;20028;-75
2021/07/06 02:29:20;;;;;;;6.50;5.13;;;;;;;18.24;83.65;100586.69;5094766;28;20023;-74
2021/07/06 02:31:46;;;;;;;7.43;5.90;;;;;;;18.26;83.69;100583.63;5088768;28;20035;-75
2021/07/06 02:34:11;;;;;;;8.07;5.70;;;;;;;18.28;83.44;100575.81;5094938;28;20489;-75
2021/07/06 02:36:36;;;;;;;6.10;5.50;;;;;;;18.28;83.30;100581.31;5093000;28;20055;-75
2021/07/06 02:39:02;;;;;;;8.05;5.70;;;;;;;18.27;83.31;100590.75;5094134;28;20024;-75
2021/07/06 02:41:28;;;;;;;8.95;6.15;;;;;;;18.24;83.33;100580.38;5088004;28;20032;-75
2021/07/06 02:43:53;;;;;;;9.55;6.03;;;;;;;18.21;83.22;100587.38;5093784;28;20032;-74
2021/07/06 02:46:18;;;;;;;6.90;6.20;;;;;;;18.17;83.44;100576.19;5093547;28;20012;-75
2021/07/06 02:48:44;;;;;;;6.25;5.20;;;;;;;18.16;83.62;100584.78;5092835;28;20028;-74
2021/07/06 02:51:14;;;;;;;8.90;5.32;;;;;;;18.12;83.45;100579.13;5088435;28;20473;-75
2021/07/06 02:53:39;;;;;;;6.28;5.53;;;;;;;18.10;83.56;100581.41;5090934;28;20024;-75
2021/07/06 02:56:04;;;;;;;6.93;5.07;;;;;;;18.09;83.47;100578.97;5092668;28;20032;-74
2021/07/06 02:58:30;;;;;;;6.45;4.88;;;;;;;18.09;83.42;100590.81;5094064;28;20362;-75
2021/07/06 03:00:55;;;;;;;5.45;4.30;;;;;;;18.09;83.47;100590.03;5092389;28;20024;-75
2021/07/06 03:03:21;;;;;;;4.88;4.38;;;;;;;18.09;83.36;100587.25;5093999;28;20027;-75
2021/07/06 03:05:46;;;;;;;5.30;4.13;;;;;;;18.08;83.22;100589.19;5092439;28;20319;-74
2021/07/06 03:08:11;;;;;;;5.13;3.92;;;;;;;18.09;83.08;100590.81;5093869;28;20023;-75
2021/07/06 03:10:38;;;;;;;5.68;4.53;;;;;;;18.09;82.98;100593.59;5087435;28;20021;-74
2021/07/06 03:13:06;;;;;;;4.57;3.70;;;;;;;18.07;82.83;100598.59;5092597;28;20107;-75
2021/07/06 03:15:31;;;;;;;4.32;3.63;;;;;;;18.03;82.82;100594.88;5092677;28;20031;-73
2021/07/06 03:17:59;;;;;;;6.30;3.95;;;;;;;18.01;82.86;100604.66;5093487;28;20048;-74
2021/07/06 03:20:26;;;;;;;4.30;3.70;;;;;;;17.99;82.81;100596.69;5088772;28;20028;-75
2021/07/06 03:22:51;;;;;;;6.60;3.53;;;;;;;18.00;82.63;100603.00;5082340;28;20028;-75
2021/07/06 03:25:18;;;;;;;4.40;3.58;;;;;;;18.04;82.51;100602.03;5092642;28;20027;-75
2021/07/06 03:27:43;;;;;;;3.85;3.45;;;;;;;18.04;82.58;100610.31;5092189;28;20023;-75
2021/07/06 03:30:11;;;;;;;4.70;3.85;;;;;;;18.06;82.60;100608.03;5091705;28;20398;-75
2021/07/06 03:32:37;;;;;;;4.43;3.97;;;;;;;18.07;82.51;100615.16;5092586;28;20027;-75
2021/07/06 03:35:04;;;;;;;4.60;4.10;;;;;;;18.08;82.44;100611.25;5093662;28;20024;-74
2021/07/06 03:37:29;;;;;;;5.70;4.32;;;;;;;18.08;82.08;100619.53;5091125;28;20047;-75
2021/07/06 03:39:54;;;;;;;5.75;4.30;;;;;;;18.08;82.13;100621.47;5092903;28;20032;-74
2021/07/06 03:42:20;;;;;;;3.70;3.35;;;;;;;18.07;82.25;100620.69;5090251;28;20057;-74
2021/07/06 03:44:45;;;;;;;6.35;3.47;;;;;;;18.04;82.23;100626.84;5098778;28;20027;-75
2021/07/06 03:47:11;;;;;;;6.57;3.30;;;;;;;18.00;81.96;100625.88;5097380;28;20028;-75
2021/07/06 03:49:36;;;;;;;3.33;3.03;;;;;;;17.95;82.21;100628.81;5100167;28;20020;-75
2021/07/06 03:52:02;;;;;;;4.07;3.25;;;;;;;17.93;82.23;100633.84;5096004;28;20461;-75
2021/07/06 03:54:27;;;;;;;5.72;3.50;;;;;;;17.92;82.08;100634.97;5098905;28;20028;-75
2021/07/06 03:56:54;;;;;;;4.75;3.35;;;;;;;17.94;82.25;100638.22;5098835;28;20031;-75
2021/07/06 03:59:21;;;;;;;4.28;3.55;;;;;;;18.01;82.19;100635.78;5098748;28;20024;-75
2021/07/06 04:01:47;;;;;;;4.45;3.10;;;;;;;18.07;81.96;100634.47;5085200;28;20032;-75
2021/07/06 04:04:13;;;;;;;6.65;3.40;;;;;;;18.11;81.73;100635.44;5095637;28;20031;-75
2021/07/06 04:06:39;;;;;;;3.33;2.85;;;;;;;18.16;81.71;100643.53;5098858;28;20041;-75
2021/07/06 04:09:04;;;;;;;4.35;3.20;;;;;;;18.21;81.44;100652.78;5099771;28;20024;-75
2021/07/06 04:11:30;;;;;;;3.20;2.83;;;;;;;18.23;81.31;100650.53;5090818;28;20024;-75
2021/07/06 04:13:55;;;;;;;3.20;2.85;;;;;;;18.23;81.01;100640.28;5100187;28;20409;-75
2021/07/06 04:16:20;;;;;;;5.68;3.33;;;;;;;18.24;80.98;100646.59;5098590;28;20028;-75
2021/07/06 04:18:46;;;;;;;4.47;2.92;;;;;;;18.27;80.74;100648.69;5098641;28;20031;-74
2021/07/06 04:21:11;;;;;;;5.03;3.33;;;;;;;18.31;80.78;100646.91;5096416;28;20028;-75
2021/07/06 04:23:39;;;;;;;4.65;3.03;;;;;;;18.34;80.61;100640.75;5099568;28;20027;-74
2021/07/06 04:26:05;;;;;;;5.43;2.75;;;;;;;18.35;80.54;100643.16;5098683;28;20032;-75
2021/07/06 04:28:30;;;;;;;3.72;3.17;;;;;;;18.38;80.42;100641.69;5095649;28;20038;-75
2021/07/06 04:30:56;;;;;;;2.88;2.53;;;;;;;18.44;80.02;100645.88;5092874;28;20036;-74
2021/07/06 04:33:22;;;;;;;5.65;3.35;;;;;;;18.54;80.09;100642.75;5099164;28;20089;-74
2021/07/06 04:35:47;;;;;;;4.93;2.40;;;;;;;18.57;79.72;100644.84;5098410;28;20027;-74
2021/07/06 04:38:12;;;;;;;3.20;2.47;;;;;;;18.59;79.66;100642.59;5093322;28;20097;-74
2021/07/06 04:40:38;;;;;;;3.90;2.53;;;;;;;18.61;79.34;100640.31;5097412;28;20496;-74
2021/07/06 04:43:06;;;;;;;2.40;2.20;;;;;;;18.60;79.30;100644.19;5098416;28;20024;-75
2021/07/06 04:45:33;;;;;;;3.40;2.40;;;;;;;18.55;79.14;100641.63;5098383;28;20024;-75
2021/07/06 04:47:58;;;;;;;3.50;2.58;;;;;;;18.47;78.97;100647.16;5079534;28;20489;-74
2021/07/06 04:50:23;;;;;;;5.82;2.88;;;;;;;18.45;78.70;100652.22;5091536;28;20028;-75
2021/07/06 04:52:49;;;;;;;5.72;3.03;;;;;;;18.44;78.89;100656.91;5097416;28;20035;-75
2021/07/06 04:55:17;;;;;;;3.00;2.50;;;;;;;18.44;78.76;100656.91;5095377;28;20024;-75
2021/07/06 04:57:43;;;;;;;4.28;2.70;;;;;;;18.46;78.74;100660.16;5093509;28;20028;-75
2021/07/06 05:00:09;;;;;;;4.25;2.60;;;;;;;18.50;78.59;100661.13;5084573;28;20020;-75
2021/07/06 05:02:34;;;;;;;5.20;2.63;;;;;;;18.53;78.52;100654.97;5093894;28;20469;-75
2021/07/06 05:04:59;;;;;;;4.55;3.13;;;;;;;18.57;78.73;100660.63;5078156;28;20031;-75
2021/07/06 05:07:25;;;;;;;3.38;2.88;;;;;;;18.58;78.65;100665.81;5094935;28;20077;-75
2021/07/06 05:09:50;;;;;;;6.35;3.10;;;;;;;18.62;78.73;100660.44;5083137;28;20039;-75
2021/07/06 05:12:16;;;;;;;6.63;3.00;;;;;;;18.68;78.66;100666.59;5093827;28;20142;-75
2021/07/06 05:14:42;;;;;;;3.85;2.75;;;;;;;18.79;78.92;100663.13;5094642;28;20384;-75
2021/07/06 05:17:08;;;;;;;5.25;2.90;;;;;;;18.84;78.36;100675.97;5094757;28;20016;-75
2021/07/06 05:19:33;;;;;;;2.72;2.53;;;;;;;18.89;78.50;100675.78;5093970;28;20100;-75
2021/07/06 05:21:59;;;;;;;3.42;2.53;;;;;;;18.97;78.04;100674.94;5093831;28;20028;-75
2021/07/06 05:24:24;;;;;;;3.65;2.78;;;;;;;19.01;77.81;100678.63;5095706;28;20016;-75
2021/07/06 05:26:49;;;;;;;3.85;2.83;;;;;;;19.03;77.83;100667.25;5094153;28;20023;-75
2021/07/06 05:29:15;;;;;;;3.13;2.67;;;;;;;19.02;77.68;100671.97;5088832;28;20028;-75
2021/07/06 05:31:41;;;;;;;4.20;2.60;;;;;;;19.03;77.52;100681.88;5094513;28;20471;-75
2021/07/06 05:34:07;;;;;;;2.92;2.60;;;;;;;19.08;77.36;100664.31;5095740;28;20372;-75
2021/07/06 05:36:33;;;;;;;6.60;2.70;;;;;;;19.15;77.12;100674.81;5089515;28;20090;-75
2021/07/06 05:38:58;;;;;;;3.35;2.70;;;;;;;19.19;76.51;100670.25;5095528;28;20024;-75
2021/07/06 05:41:24;;;;;;;3.80;2.63;;;;;;;19.29;76.79;100675.41;5093163;28;20031;-75
2021/07/06 05:43:49;;;;;;;2.90;2.20;;;;;;;19.34;76.30;100672.41;5093297;28;20032;-75
2021/07/06 05:46:15;;;;;;;2.92;2.53;;;;;;;19.34;76.02;100669.66;5093631;28;20032;-75
2021/07/06 05:48:41;;;;;;;5.18;2.92;;;;;;;19.33;75.69;100670.81;5089703;28;20497;-75
2021/07/06 05:51:06;;;;;;;3.45;2.55;;;;;;;19.31;75.59;100667.56;5092667;28;20020;-75
2021/07/06 05:53:32;;;;;;;2.90;2.42;;;;;;;19.36;75.30;100664.59;5092114;28;20385;-75
2021/07/06 05:55:57;;;;;;;3.97;2.58;;;;;;;19.32;74.98;100663.66;5093435;28;20020;-75
2021/07/06 05:58:23;;;;;;;5.03;2.47;;;;;;;19.30;74.72;100660.41;5079290;28;20020;-75
2021/07/06 06:00:48;;;;;;;4.30;2.42;;;;;;;19.31;74.71;100673.09;5094455;28;20405;-75
2021/07/06 06:03:13;;;;;;;5.05;2.80;;;;;;;19.30;74.44;100677.00;5091181;28;20019;-75
2021/07/06 06:05:39;;;;;;;3.05;2.50;;;;;;;19.33;74.58;100681.84;5093747;28;20469;-75
2021/07/06 06:08:05;;;;;;;3.58;2.70;;;;;;;19.36;74.16;100680.38;5092555;28;20040;-75
2021/07/06 06:10:31;;;;;;;3.33;2.22;;;;;;;19.40;74.15;100684.91;5093702;28;20043;-75
2021/07/06 06:12:56;;;;;;;4.70;2.22;;;;;;;19.41;74.12;100683.75;5092329;28;20380;-75
2021/07/06 06:15:22;;;;;;;4.90;2.30;;;;;;;19.41;73.63;100671.88;5092260;28;20027;-75
2021/07/06 06:17:47;;;;;;;3.67;2.60;;;;;;;19.41;73.10;100677.41;5093420;28;20030;-75
2021/07/06 06:20:13;;;;;;;3.08;2.05;;;;;;;19.43;73.18;100670.41;5092678;28;20028;-75
2021/07/06 06:22:38;;;;;;;4.45;2.65;;;;;;;19.43;72.88;100667.66;5085254;28;20028;-75
2021/07/06 06:25:04;;;;;;;4.40;2.47;;;;;;;19.43;72.14;100680.66;5092898;28;20048;-75
2021/07/06 06:27:30;;;;;;;4.32;2.33;;;;;;;19.41;72.34;100671.88;5093386;28;20537;-75
2021/07/06 06:29:55;;;;;;;3.72;2.65;;;;;;;19.41;71.89;100667.16;5093326;28;20088;-75
2021/07/06 06:32:23;;;;;;;4.78;2.75;;;;;;;19.45;72.29;100667.28;5090439;28;20016;-75
2021/07/06 06:34:48;;;;;;;4.10;2.33;;;;;;;19.46;71.95;100668.94;5094478;28;20069;-75
2021/07/06 06:37:14;;;;;;;4.55;2.45;;;;;;;19.50;71.91;100659.59;5093075;28;20043;-75
2021/07/06 06:39:40;;;;;;;3.55;2.40;;;;;;;19.61;71.32;100664.72;5094400;28;20031;-75
2021/07/06 06:42:05;;;;;;;3.63;2.30;;;;;;;19.66;70.91;100672.84;5074594;28;20123;-76
2021/07/06 06:44:31;;;;;;;2.58;2.30;;;;;;;19.65;70.90;100668.47;5091955;28;20030;-75
2021/07/06 06:46:56;;;;;;;2.45;2.25;;;;;;;19.72;70.38;100671.50;5088376;28;20062;-75
2021/07/06 06:49:21;;;;;;;3.67;2.13;;;;;;;19.72;70.06;100665.97;5089468;28;20023;-75
2021/07/06 06:51:47;;;;;;;5.13;2.90;;;;;;;19.74;70.04;100666.44;5085314;28;20035;-75
2021/07/06 06:54:12;;;;;;;5.80;2.03;;;;;;;19.75;69.78;100665.28;5093819;28;20028;-75
2021/07/06 06:56:40;;;;;;;3.33;2.60;;;;;;;19.82;69.65;100660.03;5088709;28;20025;-75
2021/07/06 06:59:07;;;;;;;3.42;2.28;;;;;;;19.89;69.55;100654.75;5073900;28;20036;-75
2021/07/06 07:01:32;;;;;;;3.28;2.42;;;;;;;19.95;69.10;100664.47;5093034;28;20020;-75
2021/07/06 07:03:58;;;;;;;4.85;2.20;;;;;;;20.02;69.07;100657.56;5092536;28;20020;-75
2021/07/06 07:06:24;;;;;;;4.30;2.53;;;;;;;20.02;68.92;100655.59;5093049;28;20029;-75
2021/07/06 07:08:50;;;;;;;3.25;2.55;;;;;;;20.12;68.92;100657.94;5071633;28;20054;-75
2021/07/06 07:11:15;;;;;;;3.63;2.83;;;;;;;20.15;68.61;100651.72;5090580;28;20020;-75
2021/07/06 07:13:41;;;;;;;3.35;2.60;;;;;;;20.13;68.37;100665.13;5092676;28;20035;-75
2021/07/06 07:16:06;;;;;;;4.78;2.30;;;;;;;20.16;68.43;100660.81;5093182;28;20464;-75
2021/07/06 07:18:31;;;;;;;4.22;2.72;;;;;;;20.26;68.51;100663.16;5087102;28;20077;-75
2021/07/06 07:20:57;;;;;;;3.20;2.58;;;;;;;20.30;68.34;100664.13;5090799;28;20491;-75
2021/07/06 07:23:22;;;;;;;4.80;2.63;;;;;;;20.35;68.00;100666.66;5091910;28;20385;-76
2021/07/06 07:25:48;;;;;;;3.40;2.92;;;;;;;20.42;67.91;100666.09;5092190;28;20028;-76
2021/07/06 07:28:13;;;;;;;3.97;2.70;;;;;;;20.39;67.42;100650.97;5087154;28;20036;-75
2021/07/06 07:30:38;;;;;;;5.47;2.83;;;;;;;20.32;67.05;100647.94;5093350;28;20085;-75
2021/07/06 07:33:04;;;;;;;5.47;2.97;;;;;;;20.33;67.22;100646.81;5070845;28;20388;-75
2021/07/06 07:35:29;;;;;;;3.45;2.97;;;;;;;20.39;66.98;100642.66;5090802;28;20039;-75
2021/07/06 07:37:55;;;;;;;2.72;2.53;;;;;;;20.40;66.64;100632.38;5091482;28;20052;-75
2021/07/06 07:40:20;;;;;;;4.05;2.97;;;;;;;20.40;66.69;100635.97;5093597;28;20028;-76
2021/07/06 07:42:48;;;;;;;3.65;2.50;;;;;;;20.49;66.76;100637.81;5092309;28;20458;-76
2021/07/06 07:45:13;;;;;;;5.10;2.78;;;;;;;20.46;66.65;100638.50;5092203;28;20028;-75
2021/07/06 07:47:38;;;;;;;3.90;2.70;;;;;;;20.57;67.07;100636.94;5085646;28;20028;-75
2021/07/06 07:50:05;;;;;;;4.13;3.47;;;;;;;20.72;66.99;100630.72;5091215;28;20065;-75
2021/07/06 07:52:32;;;;;;;5.07;2.67;;;;;;;20.88;66.49;100638.34;5092113;28;20027;-75
2021/07/06 07:54:58;;;;;;;3.97;2.83;;;;;;;21.01;66.75;100626.09;5092634;28;20145;-75
2021/07/06 07:57:24;;;;;;;4.32;2.88;;;;;;;21.13;66.62;100633.56;5083310;28;20472;-75
2021/07/06 07:59:53;;;;;;;4.05;2.65;;;;;;;21.18;66.19;100631.38;5084470;28;20035;-76
2021/07/06 08:02:19;;;;;;;8.52;3.40;;;;;;;21.22;66.18;100642.56;5089461;28;20085;-76
2021/07/06 08:04:44;;;;;;;3.70;2.97;;;;;;;21.23;65.78;100644.19;5086909;28;20066;-75
2021/07/06 08:07:10;;;;;;;5.57;3.03;;;;;;;21.21;66.13;100641.75;5077196;28;20031;-75
2021/07/06 08:09:36;;;;;;;4.03;2.90;;;;;;;21.27;66.30;100648.66;5087390;28;20392;-75
2021/07/06 08:12:02;;;;;;;5.00;2.90;;;;;;;21.36;65.82;100653.28;5083089;28;20020;-76
2021/07/06 08:14:28;;;;;;;4.30;2.70;;;;;;;21.32;65.72;100649.59;5082416;28;20024;-74
2021/07/06 08:16:54;;;;;;;6.35;3.15;;;;;;;21.28;65.70;100641.97;5081338;28;20031;-75
2021/07/06 08:19:20;;;;;;;4.03;2.70;;;;;;;21.25;65.49;100647.41;5071131;28;20039;-75
2021/07/06 08:21:45;;;;;;;4.47;2.85;;;;;;;21.18;65.10;100645.22;5071566;28;20036;-74
2021/07/06 08:24:10;;;;;;;5.05;2.92;;;;;;;21.24;65.31;100652.16;5072181;28;20044;-75
2021/07/06 08:26:36;;;;;;;4.65;2.65;;;;;;;21.46;65.42;100652.81;5085903;28;20039;-74
2021/07/06 08:29:05;;;;;;;2.72;2.50;;;;;;;21.65;64.83;100650.22;5080523;28;20382;-75
2021/07/06 08:31:30;;;;;;;2.90;2.00;;;;;;;21.52;63.69;100648.63;5093285;28;20111;-75
2021/07/06 08:33:55;;;;;;;5.45;2.70;;;;;;;21.41;63.71;100639.19;5075428;28;20095;-75
2021/07/06 08:36:21;;;;;;;5.25;2.70;;;;;;;21.41;63.78;100641.97;5091318;28;20031;-75
2021/07/06 08:38:46;;;;;;;3.78;2.75;;;;;;;21.54;64.11;100648.28;5088726;28;20058;-75
2021/07/06 08:41:12;;;;;;;4.68;2.50;;;;;;;21.67;63.81;100642.34;5080001;28;20023;-75
2021/07/06 08:43:38;;;;;;;4.85;2.70;;;;;;;21.67;63.14;100652.66;5074775;28;20552;-75
2021/07/06 08:46:03;;;;;;;3.42;2.30;;;;;;;21.70;63.30;100651.94;5094618;28;20028;-74
2021/07/06 08:48:31;;;;;;;4.00;2.67;;;;;;;21.66;63.29;100646.28;5093009;28;20096;-75
2021/07/06 08:50:57;;;;;;;3.05;2.50;;;;;;;21.73;63.35;100646.47;5076732;28;20020;-75
2021/07/06 08:53:23;;;;;;;6.30;3.00;;;;;;;21.83;63.19;100641.59;5067405;28;20024;-75
2021/07/06 08:55:48;;;;;;;3.15;2.63;;;;;;;22.00;62.90;100644.06;5088173;28;20043;-75
2021/07/06 08:58:16;;;;;;;3.47;2.80;;;;;;;22.20;62.43;100644.22;5080196;28;20016;-75
2021/07/06 09:00:42;;;;;;;3.95;3.00;;;;;;;22.25;62.26;100649.50;5093530;28;20035;-75
2021/07/06 09:03:09;;;;;;;5.72;3.08;;;;;;;22.20;62.30;100642.22;5089261;28;20381;-75
2021/07/06 09:05:35;;;;;;;3.88;2.42;;;;;;;22.11;62.47;100645.16;5088648;28;20157;-75
2021/07/06 09:08:01;;;;;;;4.50;2.35;;;;;;;22.08;62.54;100650.63;5081428;28;20028;-75
2021/07/06 09:10:28;;;;;;;3.85;2.30;;;;;;;22.07;62.56;100652.59;5094256;28;20031;-75
2021/07/06 09:12:53;;;;;;;4.82;2.40;;;;;;;22.21;62.79;100651.38;5091465;28;20092;-75
2021/07/06 09:15:23;;;;;;;4.22;2.80;;;;;;;22.25;62.22;100655.84;5088645;28;20031;-74
2021/07/06 09:18:15;;;;;;;4.13;2.72;;;;;;;22.29;62.75;100655.94;5084971;28;20016;-75
2021/07/06 09:20:42;;;;;;;7.82;2.30;;;;;;;22.39;62.71;100666.53;5079348;28;20065;-75
2021/07/06 09:23:34;;;;;;;2.72;2.53;;;;;;;22.42;62.34;100660.25;5085262;28;20035;-75
2021/07/06 09:26:29;;;;;;;6.20;2.45;;;;;;;22.27;62.46;100652.75;5079464;28;20036;-75
2021/07/06 09:28:56;;;;;;;3.25;2.28;;;;;;;22.07;62.85;100654.53;5093600;28;20051;-75
2021/07/06 09:31:25;;;;;;;3.72;1.88;;;;;;;22.03;63.27;100668.31;5094151;28;20096;-73
2021/07/06 09:34:01;;;;;;;3.15;2.28;;;;;;;21.89;63.17;100670.72;5094168;28;20043;-75
2021/07/06 09:36:27;;;;;;;2.47;2.00;;;;;;;21.71;63.81;100676.53;5093556;28;20027;-74
2021/07/06 09:39:10;;;;;;;4.47;2.08;;;;;;;21.62;63.84;100673.13;5095524;28;20469;-75
2021/07/06 09:41:36;;;;;;;3.15;1.80;;;;;;;21.70;63.54;100668.59;5093484;28;20111;-76
2021/07/06 09:44:18;;;;;;;3.40;1.60;;;;;;;21.69;63.53;100662.25;5081088;28;20088;-75
2021/07/06 09:46:50;;;;;;;3.70;1.60;;;;;;;21.60;63.42;100675.44;5091298;28;20393;-75
2021/07/06 09:49:16;;;;;;;3.58;2.15;;;;;;;21.54;63.31;100676.03;5090863;28;20442;-75
2021/07/06 09:51:42;;;;;;;4.22;2.08;;;;;;;21.49;63.77;100677.09;5091095;28;20040;-75
2021/07/06 09:54:07;;;;;;;2.80;2.08;;;;;;;21.52;63.79;100667.25;5087645;28;20070;-75
2021/07/06 09:56:32;;;;;;;2.95;2.42;;;;;;;21.64;64.00;100662.47;5090988;28;20367;-75
2021/07/06 09:59:00;;;;;;;2.83;2.00;;;;;;;21.76;63.62;100658.03;5075715;28;20032;-75
2021/07/06 10:01:25;;;;;;;3.42;2.00;;;;;;;21.86;63.14;100654.78;5090381;28;20182;-75
2021/07/06 10:03:52;;;;;;;4.38;2.05;;;;;;;21.94;62.71;100640.72;5090715;28;20168;-75
2021/07/06 10:06:18;;;;;;;3.88;2.13;;;;;;;21.97;62.71;100643.97;5092168;28;20354;-75
2021/07/06 10:08:44;;;;;;;4.35;1.83;;;;;;;22.08;62.70;100628.41;5091930;28;20607;-75
2021/07/06 10:11:10;;;;;;;2.75;1.90;;;;;;;22.31;62.48;100636.97;5073813;28;20114;-75
2021/07/06 10:13:36;;;;;;;3.70;1.77;;;;;;;22.65;62.14;100640.22;5076153;28;20030;-75
2021/07/06 10:16:04;;;;;;;3.10;2.03;;;;;;;22.81;61.75;100638.22;5086386;28;20028;-75
2021/07/06 10:18:31;;;;;;;3.83;2.10;;;;;;;23.14;61.54;100642.59;5084450;28;20028;-75
2021/07/06 10:20:57;;;;;;;3.15;1.88;;;;;;;23.21;60.78;100643.53;5074579;28;20496;-75
2021/07/06 10:23:24;;;;;;;3.55;1.92;;;;;;;23.18;60.75;100637.91;5091372;28;20024;-75
2021/07/06 10:25:53;;;;;;;4.20;2.17;;;;;;;23.08;60.56;100635.66;5079076;28;20037;-75
2021/07/06 10:28:19;;;;;;;2.28;1.70;;;;;;;22.80;60.28;100631.03;5069275;28;20717;-75
2021/07/06 10:30:46;;;;;;;2.22;1.75;;;;;;;22.51;60.75;100630.34;5078399;28;20130;-75
2021/07/06 10:33:23;;;;;;;2.53;1.80;;;;;;;22.56;60.92;100615.34;5088140;28;20417;-75
2021/07/06 10:35:49;;;;;;;2.67;1.70;;;;;;;22.56;61.11;100605.09;5093432;28;20103;-75
2021/07/06 10:38:27;;;;;;;3.95;1.92;;;;;;;22.66;61.36;100619.59;5086661;28;20473;-75
2021/07/06 10:40:55;;;;;;;3.63;1.63;;;;;;;22.77;61.13;100615.88;5093008;28;20023;-75
2021/07/06 10:43:35;;;;;;;1.80;1.48;;;;;;;22.70;60.26;100609.34;5091809;28;20077;-75
2021/07/06 10:46:17;;;;;;;2.22;1.50;;;;;;;22.81;59.98;100607.66;5081403;28;20024;-75
2021/07/06 10:48:43;;;;;;;2.88;1.55;;;;;;;22.85;59.69;100608.53;5074783;28;20027;-75
2021/07/06 10:51:09;;;;;;;2.75;1.63;;;;;;;22.84;59.99;100615.25;5084774;28;20028;-75
2021/07/06 10:53:34;;;;;;;4.28;1.58;;;;;;;23.00;60.13;100624.41;5092282;28;20024;-75
2021/07/06 10:56:01;;;;;;;2.90;1.35;;;;;;;23.25;59.50;100624.97;5089521;28;20031;-75
2021/07/06 10:58:45;;;;;;;5.22;1.80;;;;;;;23.32;59.81;100613.16;5090739;28;20020;-75
2021/07/06 11:01:11;;;;;;;2.47;1.40;;;;;;;23.18;60.22;100619.22;5084137;28;20036;-74
2021/07/06 11:03:39;;;;;;;2.53;1.70;;;;;;;23.01;59.71;100614.09;5088629;28;20032;-75
2021/07/06 11:06:26;;;;;;;3.10;1.90;;;;;;;23.04;59.76;100608.59;5088225;28;20047;-75
2021/07/06 11:08:51;;;;;;;5.18;2.00;;;;;;;23.17;60.33;100605.69;5089754;28;20031;-75
2021/07/06 11:11:33;;;;;;;2.58;1.67;;;;;;;23.37;58.98;100598.97;5092426;28;20028;-75
2021/07/06 11:14:24;;;;;;;2.05;1.85;;;;;;;23.51;58.48;100597.66;5088074;28;20027;-75
2021/07/06 11:17:02;;;;;;;3.05;1.30;;;;;;;23.97;57.33;100592.22;5088818;28;20048;-75
2021/07/06 11:19:44;;;;;;;2.83;1.35;;;;;;;24.20;55.95;100606.97;5083055;28;20028;-75
2021/07/06 11:22:16;;;;;;;2.40;1.60;;;;;;;24.05;55.51;100593.97;5087894;28;20027;-75
2021/07/06 11:24:46;;;;;;;2.67;1.50;;;;;;;23.86;54.71;100609.53;5090140;28;20024;-74